sensor_id;sensor_type;location;lat;lon;timestamp;temperature;humidity
65472;DHT22;52068;50.710;14.492;2022-09-09T00:07:01;23.66;55.14
65472;DHT22;52068;50.710;14.492;2022-09-09T00:09:29;23.65;55.24
65472;DHT22;52068;50.710;14.492;2022-09-09T00:12:00;23.68;55.36
65472;DHT22;52068;50.710;14.492;2022-09-09T00:14:37;23.66;55.42
65472;DHT22;52068;50.710;14.492;2022-09-09T00:17:12;23.69;55.46
65472;DHT22;52068;50.710;14.492;2022-09-09T00:24:44;23.65;55.26
65472;DHT22;52068;50.710;14.492;2022-09-09T00:27:24;23.65;55.20
65472;DHT22;52068;50.710;14.492;2022-09-09T00:29:55;23.65;55.19
65472;DHT22;52068;50.710;14.492;2022-09-09T00:32:22;23.64;55.13
65472;DHT22;52068;50.710;14.492;2022-09-09T00:34:51;23.65;55.17
65472;DHT22;52068;50.710;14.492;2022-09-09T00:37:18;23.64;55.24
65472;DHT22;52068;50.710;14.492;2022-09-09T00:39:45;23.65;55.31
65472;DHT22;52068;50.710;14.492;2022-09-09T00:42:25;23.62;55.13
65472;DHT22;52068;50.710;14.492;2022-09-09T00:44:51;23.62;55.09
65472;DHT22;52068;50.710;14.492;2022-09-09T00:50:05;23.64;55.23
65472;DHT22;52068;50.710;14.492;2022-09-09T00:52:49;23.61;55.12
65472;DHT22;52068;50.710;14.492;2022-09-09T00:58:02;23.59;54.98
65472;DHT22;52068;50.710;14.492;2022-09-09T01:00:28;23.59;55.19
65472;DHT22;52068;50.710;14.492;2022-09-09T01:07:48;23.57;55.16
65472;DHT22;52068;50.710;14.492;2022-09-09T01:10:21;23.54;55.01
65472;DHT22;52068;50.710;14.492;2022-09-09T01:12:51;23.57;55.22
65472;DHT22;52068;50.710;14.492;2022-09-09T01:15:18;23.54;55.17
65472;DHT22;52068;50.710;14.492;2022-09-09T01:20:15;23.55;55.27
65472;DHT22;52068;50.710;14.492;2022-09-09T01:27:41;23.54;55.13
65472;DHT22;52068;50.710;14.492;2022-09-09T01:30:11;23.54;55.28
65472;DHT22;52068;50.710;14.492;2022-09-09T01:32:42;23.54;55.32
65472;DHT22;52068;50.710;14.492;2022-09-09T01:35:08;23.51;55.08
65472;DHT22;52068;50.710;14.492;2022-09-09T01:37:34;23.54;55.04
65472;DHT22;52068;50.710;14.492;2022-09-09T01:39:59;23.54;55.19
65472;DHT22;52068;50.710;14.492;2022-09-09T01:42:24;23.50;54.98
65472;DHT22;52068;50.710;14.492;2022-09-09T01:44:50;23.52;55.15
65472;DHT22;52068;50.710;14.492;2022-09-09T01:47:15;23.52;55.25
65472;DHT22;52068;50.710;14.492;2022-09-09T01:49:40;23.50;55.05
65472;DHT22;52068;50.710;14.492;2022-09-09T01:52:06;23.50;55.18
65472;DHT22;52068;50.710;14.492;2022-09-09T01:54:33;23.48;55.13
65472;DHT22;52068;50.710;14.492;2022-09-09T02:06:52;23.43;55.03
65472;DHT22;52068;50.710;14.492;2022-09-09T02:09:20;23.45;55.09
65472;DHT22;52068;50.710;14.492;2022-09-09T02:11:47;23.41;54.89
65472;DHT22;52068;50.710;14.492;2022-09-09T02:14:16;23.41;54.83
65472;DHT22;52068;50.710;14.492;2022-09-09T02:16:56;23.41;54.98
65472;DHT22;52068;50.710;14.492;2022-09-09T02:19:44;23.43;54.97
65472;DHT22;52068;50.710;14.492;2022-09-09T02:22:11;23.43;54.74
65472;DHT22;52068;50.710;14.492;2022-09-09T02:24:37;23.41;54.85
65472;DHT22;52068;50.710;14.492;2022-09-09T02:27:04;23.41;54.79
65472;DHT22;52068;50.710;14.492;2022-09-09T02:29:36;23.41;54.82
65472;DHT22;52068;50.710;14.492;2022-09-09T02:32:04;23.40;54.94
65472;DHT22;52068;50.710;14.492;2022-09-09T02:34:31;23.38;55.02
65472;DHT22;52068;50.710;14.492;2022-09-09T02:36:57;23.40;55.03
65472;DHT22;52068;50.710;14.492;2022-09-09T02:39:24;23.38;55.02
65472;DHT22;52068;50.710;14.492;2022-09-09T02:41:49;23.38;55.24
65472;DHT22;52068;50.710;14.492;2022-09-09T02:44:15;23.40;55.25
65472;DHT22;52068;50.710;14.492;2022-09-09T02:52:07;23.38;54.75
65472;DHT22;52068;50.710;14.492;2022-09-09T02:54:34;23.38;55.06
65472;DHT22;52068;50.710;14.492;2022-09-09T02:57:08;23.37;55.09
65472;DHT22;52068;50.710;14.492;2022-09-09T02:59:35;23.37;54.89
65472;DHT22;52068;50.710;14.492;2022-09-09T03:02:01;23.35;54.85
65472;DHT22;52068;50.710;14.492;2022-09-09T03:04:26;23.37;54.99
65472;DHT22;52068;50.710;14.492;2022-09-09T03:06:51;23.35;55.13
65472;DHT22;52068;50.710;14.492;2022-09-09T03:09:17;23.33;54.98
65472;DHT22;52068;50.710;14.492;2022-09-09T03:11:42;23.34;54.96
65472;DHT22;52068;50.710;14.492;2022-09-09T03:14:07;23.33;55.02
65472;DHT22;52068;50.710;14.492;2022-09-09T03:16:33;23.33;54.90
65472;DHT22;52068;50.710;14.492;2022-09-09T03:19:00;23.33;55.33
65472;DHT22;52068;50.710;14.492;2022-09-09T03:21:25;23.34;55.00
65472;DHT22;52068;50.710;14.492;2022-09-09T03:23:50;23.30;54.67
65472;DHT22;52068;50.710;14.492;2022-09-09T03:26:16;23.30;54.91
65472;DHT22;52068;50.710;14.492;2022-09-09T03:28:41;23.31;54.72
65472;DHT22;52068;50.710;14.492;2022-09-09T03:31:07;23.28;54.51
65472;DHT22;52068;50.710;14.492;2022-09-09T03:33:35;23.28;54.78
65472;DHT22;52068;50.710;14.492;2022-09-09T03:36:02;23.28;54.90
65472;DHT22;52068;50.710;14.492;2022-09-09T03:38:27;23.25;54.88
65472;DHT22;52068;50.710;14.492;2022-09-09T03:40:54;23.27;54.84
65472;DHT22;52068;50.710;14.492;2022-09-09T03:43:23;23.28;54.79
65472;DHT22;52068;50.710;14.492;2022-09-09T03:45:49;23.28;55.15
65472;DHT22;52068;50.710;14.492;2022-09-09T03:48:15;23.28;54.78
65472;DHT22;52068;50.710;14.492;2022-09-09T03:50:47;23.27;55.29
65472;DHT22;52068;50.710;14.492;2022-09-09T03:53:13;23.25;55.04
65472;DHT22;52068;50.710;14.492;2022-09-09T03:55:39;23.27;54.80
65472;DHT22;52068;50.710;14.492;2022-09-09T03:58:06;23.27;54.96
65472;DHT22;52068;50.710;14.492;2022-09-09T04:00:32;23.24;54.91
65472;DHT22;52068;50.710;14.492;2022-09-09T04:02:57;23.23;54.98
65472;DHT22;52068;50.710;14.492;2022-09-09T04:05:22;23.23;54.90
65472;DHT22;52068;50.710;14.492;2022-09-09T04:07:48;23.25;55.24
65472;DHT22;52068;50.710;14.492;2022-09-09T04:10:13;23.24;54.92
65472;DHT22;52068;50.710;14.492;2022-09-09T04:12:38;23.25;55.24
65472;DHT22;52068;50.710;14.492;2022-09-09T04:15:04;23.25;55.21
65472;DHT22;52068;50.710;14.492;2022-09-09T04:17:29;23.23;54.65
65472;DHT22;52068;50.710;14.492;2022-09-09T04:19:54;23.21;54.71
65472;DHT22;52068;50.710;14.492;2022-09-09T04:22:20;23.21;54.95
65472;DHT22;52068;50.710;14.492;2022-09-09T04:24:45;23.20;54.84
65472;DHT22;52068;50.710;14.492;2022-09-09T04:27:10;23.23;54.92
65472;DHT22;52068;50.710;14.492;2022-09-09T04:29:35;23.17;54.92
65472;DHT22;52068;50.710;14.492;2022-09-09T04:32:01;23.20;55.07
65472;DHT22;52068;50.710;14.492;2022-09-09T04:34:26;23.18;54.86
65472;DHT22;52068;50.710;14.492;2022-09-09T04:36:51;23.20;55.34
65472;DHT22;52068;50.710;14.492;2022-09-09T04:39:17;23.17;55.03
65472;DHT22;52068;50.710;14.492;2022-09-09T04:41:42;23.18;54.76
65472;DHT22;52068;50.710;14.492;2022-09-09T04:44:07;23.17;55.10
65472;DHT22;52068;50.710;14.492;2022-09-09T04:46:33;23.18;55.01
65472;DHT22;52068;50.710;14.492;2022-09-09T04:48:59;23.20;54.92
65472;DHT22;52068;50.710;14.492;2022-09-09T04:51:24;23.18;55.16
65472;DHT22;52068;50.710;14.492;2022-09-09T04:53:50;23.21;55.02
65472;DHT22;52068;50.710;14.492;2022-09-09T04:56:16;23.15;54.78
65472;DHT22;52068;50.710;14.492;2022-09-09T04:58:42;23.15;54.87
65472;DHT22;52068;50.710;14.492;2022-09-09T05:01:18;23.13;55.14
65472;DHT22;52068;50.710;14.492;2022-09-09T05:03:43;23.14;55.20
65472;DHT22;52068;50.710;14.492;2022-09-09T05:06:11;23.13;55.31
65472;DHT22;52068;50.710;14.492;2022-09-09T05:08:37;23.14;55.01
65472;DHT22;52068;50.710;14.492;2022-09-09T05:11:03;23.15;54.99
65472;DHT22;52068;50.710;14.492;2022-09-09T05:13:28;23.15;54.97
65472;DHT22;52068;50.710;14.492;2022-09-09T05:15:56;23.14;55.21
65472;DHT22;52068;50.710;14.492;2022-09-09T05:18:21;23.13;55.15
65472;DHT22;52068;50.710;14.492;2022-09-09T05:20:47;23.14;55.31
65472;DHT22;52068;50.710;14.492;2022-09-09T05:23:12;23.11;55.35
65472;DHT22;52068;50.710;14.492;2022-09-09T05:25:38;23.13;55.19
65472;DHT22;52068;50.710;14.492;2022-09-09T05:28:03;23.14;55.34
65472;DHT22;52068;50.710;14.492;2022-09-09T05:30:28;23.14;55.13
65472;DHT22;52068;50.710;14.492;2022-09-09T05:32:57;23.11;55.35
65472;DHT22;52068;50.710;14.492;2022-09-09T05:35:22;23.11;55.34
65472;DHT22;52068;50.710;14.492;2022-09-09T05:37:48;23.13;55.38
65472;DHT22;52068;50.710;14.492;2022-09-09T05:40:13;23.13;55.56
65472;DHT22;52068;50.710;14.492;2022-09-09T05:42:38;23.13;55.45
65472;DHT22;52068;50.710;14.492;2022-09-09T05:45:05;23.14;55.79
65472;DHT22;52068;50.710;14.492;2022-09-09T05:47:30;23.15;55.96
65472;DHT22;52068;50.710;14.492;2022-09-09T05:49:55;23.15;55.95
65472;DHT22;52068;50.710;14.492;2022-09-09T05:52:20;23.20;55.99
65472;DHT22;52068;50.710;14.492;2022-09-09T05:54:46;23.21;55.90
65472;DHT22;52068;50.710;14.492;2022-09-09T05:57:11;23.21;55.81
65472;DHT22;52068;50.710;14.492;2022-09-09T05:59:36;23.23;55.80
65472;DHT22;52068;50.710;14.492;2022-09-09T06:02:02;23.27;55.72
65472;DHT22;52068;50.710;14.492;2022-09-09T06:04:27;23.28;55.66
65472;DHT22;52068;50.710;14.492;2022-09-09T06:06:52;23.28;55.59
65472;DHT22;52068;50.710;14.492;2022-09-09T06:09:18;23.31;55.55
65472;DHT22;52068;50.710;14.492;2022-09-09T06:11:43;23.30;55.51
65472;DHT22;52068;50.710;14.492;2022-09-09T06:14:09;23.27;55.46
65472;DHT22;52068;50.710;14.492;2022-09-09T06:16:34;23.28;55.45
65472;DHT22;52068;50.710;14.492;2022-09-09T06:19:00;23.31;55.37
65472;DHT22;52068;50.710;14.492;2022-09-09T06:21:33;23.33;55.35
65472;DHT22;52068;50.710;14.492;2022-09-09T06:23:59;23.35;55.26
65472;DHT22;52068;50.710;14.492;2022-09-09T06:26:25;23.35;55.23
65472;DHT22;52068;50.710;14.492;2022-09-09T06:28:51;23.33;55.17
65472;DHT22;52068;50.710;14.492;2022-09-09T06:31:18;23.35;55.15
65472;DHT22;52068;50.710;14.492;2022-09-09T06:33:47;23.35;55.05
65472;DHT22;52068;50.710;14.492;2022-09-09T06:36:13;23.35;55.03
65472;DHT22;52068;50.710;14.492;2022-09-09T06:38:40;23.35;55.03
65472;DHT22;52068;50.710;14.492;2022-09-09T06:41:05;23.38;55.01
65472;DHT22;52068;50.710;14.492;2022-09-09T06:43:31;23.37;54.96
65472;DHT22;52068;50.710;14.492;2022-09-09T06:45:57;23.37;54.98
65472;DHT22;52068;50.710;14.492;2022-09-09T06:48:23;23.40;54.94
65472;DHT22;52068;50.710;14.492;2022-09-09T06:50:48;23.38;54.98
65472;DHT22;52068;50.710;14.492;2022-09-09T06:53:17;23.38;54.91
65472;DHT22;52068;50.710;14.492;2022-09-09T06:55:44;23.40;54.90
65472;DHT22;52068;50.710;14.492;2022-09-09T06:58:09;23.40;54.81
65472;DHT22;52068;50.710;14.492;2022-09-09T07:00:35;23.40;54.83
65472;DHT22;52068;50.710;14.492;2022-09-09T07:03:02;23.38;54.80
65472;DHT22;52068;50.710;14.492;2022-09-09T07:05:28;23.40;54.76
65472;DHT22;52068;50.710;14.492;2022-09-09T07:07:53;23.40;54.80
65472;DHT22;52068;50.710;14.492;2022-09-09T07:10:18;23.41;54.75
65472;DHT22;52068;50.710;14.492;2022-09-09T07:12:43;23.43;54.72
65472;DHT22;52068;50.710;14.492;2022-09-09T07:15:09;23.41;54.71
65472;DHT22;52068;50.710;14.492;2022-09-09T07:17:34;23.47;54.71
65472;DHT22;52068;50.710;14.492;2022-09-09T07:20:00;23.41;54.65
65472;DHT22;52068;50.710;14.492;2022-09-09T07:22:27;23.43;54.68
65472;DHT22;52068;50.710;14.492;2022-09-09T07:24:52;23.44;54.70
65472;DHT22;52068;50.710;14.492;2022-09-09T07:27:18;23.45;54.67
65472;DHT22;52068;50.710;14.492;2022-09-09T07:29:43;23.43;54.70
65472;DHT22;52068;50.710;14.492;2022-09-09T07:32:10;23.47;54.64
65472;DHT22;52068;50.710;14.492;2022-09-09T07:34:36;23.47;54.65
65472;DHT22;52068;50.710;14.492;2022-09-09T07:37:01;23.45;54.63
65472;DHT22;52068;50.710;14.492;2022-09-09T07:39:26;23.45;54.61
65472;DHT22;52068;50.710;14.492;2022-09-09T07:41:51;23.45;54.64
65472;DHT22;52068;50.710;14.492;2022-09-09T07:44:18;23.48;54.64
65472;DHT22;52068;50.710;14.492;2022-09-09T07:46:43;23.48;54.61
65472;DHT22;52068;50.710;14.492;2022-09-09T07:49:10;23.47;54.59
65472;DHT22;52068;50.710;14.492;2022-09-09T07:51:37;23.48;54.61
65472;DHT22;52068;50.710;14.492;2022-09-09T07:54:07;23.50;54.61
65472;DHT22;52068;50.710;14.492;2022-09-09T07:56:34;23.51;54.63
65472;DHT22;52068;50.710;14.492;2022-09-09T07:59:00;23.50;54.59
65472;DHT22;52068;50.710;14.492;2022-09-09T08:01:30;23.50;54.60
65472;DHT22;52068;50.710;14.492;2022-09-09T08:03:59;23.51;54.62
65472;DHT22;52068;50.710;14.492;2022-09-09T08:06:26;23.51;54.56
65472;DHT22;52068;50.710;14.492;2022-09-09T08:08:52;23.52;54.59
65472;DHT22;52068;50.710;14.492;2022-09-09T08:11:17;23.52;54.61
65472;DHT22;52068;50.710;14.492;2022-09-09T08:13:43;23.52;54.59
65472;DHT22;52068;50.710;14.492;2022-09-09T08:16:09;23.51;54.60
65472;DHT22;52068;50.710;14.492;2022-09-09T08:18:35;23.52;54.61
65472;DHT22;52068;50.710;14.492;2022-09-09T08:21:04;23.52;54.56
65472;DHT22;52068;50.710;14.492;2022-09-09T08:23:30;23.55;54.55
65472;DHT22;52068;50.710;14.492;2022-09-09T08:26:02;23.54;54.57
65472;DHT22;52068;50.710;14.492;2022-09-09T08:28:27;23.55;54.60
65472;DHT22;52068;50.710;14.492;2022-09-09T08:30:53;23.54;54.58
65472;DHT22;52068;50.710;14.492;2022-09-09T08:33:19;23.52;54.60
65472;DHT22;52068;50.710;14.492;2022-09-09T08:35:50;23.52;54.60
65472;DHT22;52068;50.710;14.492;2022-09-09T08:38:16;23.55;54.60
65472;DHT22;52068;50.710;14.492;2022-09-09T08:40:42;23.55;54.66
65472;DHT22;52068;50.710;14.492;2022-09-09T08:43:10;23.57;54.54
65472;DHT22;52068;50.710;14.492;2022-09-09T08:45:45;23.57;54.60
65472;DHT22;52068;50.710;14.492;2022-09-09T08:50:40;23.57;54.54
65472;DHT22;52068;50.710;14.492;2022-09-09T08:55:38;23.59;54.59
65472;DHT22;52068;50.710;14.492;2022-09-09T08:58:27;23.59;54.60
65472;DHT22;52068;50.710;14.492;2022-09-09T09:11:37;23.59;54.76
65472;DHT22;52068;50.710;14.492;2022-09-09T09:14:07;23.62;54.80
65472;DHT22;52068;50.710;14.492;2022-09-09T09:19:11;23.66;54.97
65472;DHT22;52068;50.710;14.492;2022-09-09T09:21:39;23.64;54.91
65472;DHT22;52068;50.710;14.492;2022-09-09T09:24:09;23.65;54.89
65472;DHT22;52068;50.710;14.492;2022-09-09T09:26:40;23.68;54.79
65472;DHT22;52068;50.710;14.492;2022-09-09T09:29:15;23.68;54.79
65472;DHT22;52068;50.710;14.492;2022-09-09T09:31:50;23.66;54.75
65472;DHT22;52068;50.710;14.492;2022-09-09T09:34:16;23.66;54.81
65472;DHT22;52068;50.710;14.492;2022-09-09T09:36:46;23.66;54.75
65472;DHT22;52068;50.710;14.492;2022-09-09T09:39:24;23.68;54.82
65472;DHT22;52068;50.710;14.492;2022-09-09T09:41:49;23.68;54.78
65472;DHT22;52068;50.710;14.492;2022-09-09T09:44:29;23.69;54.84
65472;DHT22;52068;50.710;14.492;2022-09-09T09:49:39;23.68;54.86
65472;DHT22;52068;50.710;14.492;2022-09-09T09:52:05;23.69;54.79
65472;DHT22;52068;50.710;14.492;2022-09-09T09:54:33;23.68;54.91
65472;DHT22;52068;50.710;14.492;2022-09-09T09:57:11;23.71;54.89
65472;DHT22;52068;50.710;14.492;2022-09-09T09:59:37;23.69;55.07
65472;DHT22;52068;50.710;14.492;2022-09-09T10:04:42;23.69;55.49
65472;DHT22;52068;50.710;14.492;2022-09-09T10:07:11;23.69;55.67
65472;DHT22;52068;50.710;14.492;2022-09-09T10:09:36;23.72;55.78
65472;DHT22;52068;50.710;14.492;2022-09-09T10:14:40;23.71;55.65
65472;DHT22;52068;50.710;14.492;2022-09-09T10:17:20;23.71;55.68
65472;DHT22;52068;50.710;14.492;2022-09-09T10:22:45;23.76;55.76
65472;DHT22;52068;50.710;14.492;2022-09-09T10:27:47;23.75;55.82
65472;DHT22;52068;50.710;14.492;2022-09-09T10:30:19;23.75;55.86
65472;DHT22;52068;50.710;14.492;2022-09-09T10:33:04;23.76;55.73
65472;DHT22;52068;50.710;14.492;2022-09-09T10:45:43;23.78;55.66
65472;DHT22;52068;50.710;14.492;2022-09-09T10:53:31;23.81;55.67
65472;DHT22;52068;50.710;14.492;2022-09-09T10:56:12;23.82;55.80
65472;DHT22;52068;50.710;14.492;2022-09-09T11:01:18;23.84;55.66
65472;DHT22;52068;50.710;14.492;2022-09-09T11:03:47;23.86;55.83
65472;DHT22;52068;50.710;14.492;2022-09-09T11:06:19;23.86;55.91
65472;DHT22;52068;50.710;14.492;2022-09-09T11:08:46;23.86;55.86
65472;DHT22;52068;50.710;14.492;2022-09-09T11:11:25;23.86;55.80
65472;DHT22;52068;50.710;14.492;2022-09-09T11:16:22;23.89;55.42
65472;DHT22;52068;50.710;14.492;2022-09-09T11:18:49;23.93;55.37
65472;DHT22;52068;50.710;14.492;2022-09-09T11:21:48;23.93;55.21
65472;DHT22;52068;50.710;14.492;2022-09-09T11:24:09;23.98;55.15
65472;DHT22;52068;50.710;14.492;2022-09-09T11:26:39;23.96;55.09
65472;DHT22;52068;50.710;14.492;2022-09-09T11:29:11;23.98;54.82
65472;DHT22;52068;50.710;14.492;2022-09-09T11:31:51;23.98;54.46
65472;DHT22;52068;50.710;14.492;2022-09-09T11:34:38;23.96;54.06
65472;DHT22;52068;50.710;14.492;2022-09-09T11:44:32;24.01;54.21
65472;DHT22;52068;50.710;14.492;2022-09-09T11:46:57;24.03;54.09
65472;DHT22;52068;50.710;14.492;2022-09-09T11:49:29;24.03;53.94
65472;DHT22;52068;50.710;14.492;2022-09-09T11:51:56;24.05;53.77
65472;DHT22;52068;50.710;14.492;2022-09-09T11:54:27;24.06;53.63
65472;DHT22;52068;50.710;14.492;2022-09-09T11:56:54;24.08;53.52
65472;DHT22;52068;50.710;14.492;2022-09-09T11:59:26;24.10;53.43
65472;DHT22;52068;50.710;14.492;2022-09-09T12:01:58;24.10;53.34
65472;DHT22;52068;50.710;14.492;2022-09-09T12:06:57;24.13;53.27
65472;DHT22;52068;50.710;14.492;2022-09-09T12:19:35;24.20;53.11
65472;DHT22;52068;50.710;14.492;2022-09-09T12:22:04;24.22;53.08
65472;DHT22;52068;50.710;14.492;2022-09-09T12:27:15;24.24;52.93
65472;DHT22;52068;50.710;14.492;2022-09-09T12:29:45;24.23;52.92
65472;DHT22;52068;50.710;14.492;2022-09-09T12:32:18;24.24;52.88
65472;DHT22;52068;50.710;14.492;2022-09-09T12:34:49;24.24;52.78
65472;DHT22;52068;50.710;14.492;2022-09-09T12:37:32;24.26;52.68
65472;DHT22;52068;50.710;14.492;2022-09-09T12:40:00;24.26;52.62
65472;DHT22;52068;50.710;14.492;2022-09-09T12:42:27;24.26;52.51
65472;DHT22;52068;50.710;14.492;2022-09-09T12:44:53;24.26;52.44
65472;DHT22;52068;50.710;14.492;2022-09-09T12:47:20;24.26;52.45
65472;DHT22;52068;50.710;14.492;2022-09-09T12:49:46;24.23;52.48
65472;DHT22;52068;50.710;14.492;2022-09-09T12:52:29;24.23;52.41
65472;DHT22;52068;50.710;14.492;2022-09-09T12:54:55;24.26;52.34
65472;DHT22;52068;50.710;14.492;2022-09-09T12:57:22;24.30;52.31
65472;DHT22;52068;50.710;14.492;2022-09-09T12:59:50;24.32;52.22
65472;DHT22;52068;50.710;14.492;2022-09-09T13:04:44;24.32;52.11
65472;DHT22;52068;50.710;14.492;2022-09-09T13:07:12;24.36;52.10
65472;DHT22;52068;50.710;14.492;2022-09-09T13:09:38;24.37;52.00
65472;DHT22;52068;50.710;14.492;2022-09-09T13:12:04;24.40;51.99
65472;DHT22;52068;50.710;14.492;2022-09-09T13:14:33;24.41;51.82
65472;DHT22;52068;50.710;14.492;2022-09-09T13:17:00;24.43;51.79
65472;DHT22;52068;50.710;14.492;2022-09-09T13:19:26;24.47;51.72
65472;DHT22;52068;50.710;14.492;2022-09-09T13:21:54;24.50;51.64
65472;DHT22;52068;50.710;14.492;2022-09-09T13:27:04;24.49;51.67
65472;DHT22;52068;50.710;14.492;2022-09-09T13:29:31;24.50;51.65
65472;DHT22;52068;50.710;14.492;2022-09-09T13:32:03;24.50;51.65
65472;DHT22;52068;50.710;14.492;2022-09-09T13:34:33;24.47;51.60
65472;DHT22;52068;50.710;14.492;2022-09-09T13:37:03;24.44;51.66
65472;DHT22;52068;50.710;14.492;2022-09-09T13:39:30;24.44;51.71
65472;DHT22;52068;50.710;14.492;2022-09-09T13:41:57;24.43;51.79
65472;DHT22;52068;50.710;14.492;2022-09-09T13:44:27;24.40;51.78
65472;DHT22;52068;50.710;14.492;2022-09-09T13:47:00;24.40;51.79
65472;DHT22;52068;50.710;14.492;2022-09-09T13:49:27;24.39;51.84
65472;DHT22;52068;50.710;14.492;2022-09-09T13:52:02;24.36;51.85
65472;DHT22;52068;50.710;14.492;2022-09-09T13:54:27;24.34;51.87
65472;DHT22;52068;50.710;14.492;2022-09-09T13:56:53;24.39;51.85
65472;DHT22;52068;50.710;14.492;2022-09-09T13:59:20;24.37;51.73
65472;DHT22;52068;50.710;14.492;2022-09-09T14:01:46;24.36;51.71
65472;DHT22;52068;50.710;14.492;2022-09-09T14:04:12;24.36;51.65
65472;DHT22;52068;50.710;14.492;2022-09-09T14:06:38;24.37;51.62
65472;DHT22;52068;50.710;14.492;2022-09-09T14:09:08;24.36;51.65
65472;DHT22;52068;50.710;14.492;2022-09-09T14:11:34;24.37;51.66
65472;DHT22;52068;50.710;14.492;2022-09-09T14:13:59;24.36;51.65
65472;DHT22;52068;50.710;14.492;2022-09-09T14:16:25;24.37;51.54
65472;DHT22;52068;50.710;14.492;2022-09-09T14:18:52;24.34;51.57
65472;DHT22;52068;50.710;14.492;2022-09-09T14:21:18;24.37;51.50
65472;DHT22;52068;50.710;14.492;2022-09-09T14:23:43;24.34;51.54
65472;DHT22;52068;50.710;14.492;2022-09-09T14:26:08;24.34;51.55
65472;DHT22;52068;50.710;14.492;2022-09-09T14:28:34;24.30;51.57
65472;DHT22;52068;50.710;14.492;2022-09-09T14:31:00;24.32;51.65
65472;DHT22;52068;50.710;14.492;2022-09-09T14:33:26;24.33;51.64
65472;DHT22;52068;50.710;14.492;2022-09-09T14:35:59;24.30;51.69
65472;DHT22;52068;50.710;14.492;2022-09-09T14:38:25;24.30;51.66
65472;DHT22;52068;50.710;14.492;2022-09-09T14:40:50;24.30;51.75
65472;DHT22;52068;50.710;14.492;2022-09-09T14:43:15;24.30;51.74
65472;DHT22;52068;50.710;14.492;2022-09-09T14:45:41;24.32;51.77
65472;DHT22;52068;50.710;14.492;2022-09-09T14:48:06;24.34;51.73
65472;DHT22;52068;50.710;14.492;2022-09-09T14:50:31;24.33;51.74
65472;DHT22;52068;50.710;14.492;2022-09-09T14:52:56;24.33;51.74
65472;DHT22;52068;50.710;14.492;2022-09-09T14:55:22;24.32;51.82
65472;DHT22;52068;50.710;14.492;2022-09-09T14:57:47;24.34;51.87
65472;DHT22;52068;50.710;14.492;2022-09-09T15:00:12;24.34;51.99
65472;DHT22;52068;50.710;14.492;2022-09-09T15:02:38;24.33;52.11
65472;DHT22;52068;50.710;14.492;2022-09-09T15:05:03;24.32;52.19
65472;DHT22;52068;50.710;14.492;2022-09-09T15:07:29;24.33;52.27
65472;DHT22;52068;50.710;14.492;2022-09-09T15:09:56;24.33;52.32
65472;DHT22;52068;50.710;14.492;2022-09-09T15:12:22;24.34;52.36
65472;DHT22;52068;50.710;14.492;2022-09-09T15:14:47;24.30;52.34
65472;DHT22;52068;50.710;14.492;2022-09-09T15:17:13;24.36;52.38
65472;DHT22;52068;50.710;14.492;2022-09-09T15:19:38;24.39;52.36
65472;DHT22;52068;50.710;14.492;2022-09-09T15:22:04;24.40;52.29
65472;DHT22;52068;50.710;14.492;2022-09-09T15:24:31;24.44;52.31
65472;DHT22;52068;50.710;14.492;2022-09-09T15:26:56;24.49;52.27
65472;DHT22;52068;50.710;14.492;2022-09-09T15:29:22;24.50;52.30
65472;DHT22;52068;50.710;14.492;2022-09-09T15:31:47;24.54;52.30
65472;DHT22;52068;50.710;14.492;2022-09-09T15:34:13;24.57;52.39
65472;DHT22;52068;50.710;14.492;2022-09-09T15:36:42;24.60;52.37
65472;DHT22;52068;50.710;14.492;2022-09-09T15:39:09;24.61;52.40
65472;DHT22;52068;50.710;14.492;2022-09-09T15:41:37;24.60;52.48
65472;DHT22;52068;50.710;14.492;2022-09-09T15:44:03;24.60;52.58
65472;DHT22;52068;50.710;14.492;2022-09-09T15:48:58;24.63;52.65
65472;DHT22;52068;50.710;14.492;2022-09-09T15:51:24;24.61;52.65
65472;DHT22;52068;50.710;14.492;2022-09-09T15:53:54;24.57;52.76
65472;DHT22;52068;50.710;14.492;2022-09-09T15:56:20;24.57;52.79
65472;DHT22;52068;50.710;14.492;2022-09-09T15:58:45;24.54;52.84
65472;DHT22;52068;50.710;14.492;2022-09-09T16:01:11;24.53;52.97
65472;DHT22;52068;50.710;14.492;2022-09-09T16:03:38;24.52;53.07
65472;DHT22;52068;50.710;14.492;2022-09-09T16:06:04;24.50;53.13
65472;DHT22;52068;50.710;14.492;2022-09-09T16:08:36;24.49;53.22
65472;DHT22;52068;50.710;14.492;2022-09-09T16:11:05;24.47;53.32
65472;DHT22;52068;50.710;14.492;2022-09-09T16:13:34;24.47;53.35
65472;DHT22;52068;50.710;14.492;2022-09-09T16:15:59;24.47;53.40
65472;DHT22;52068;50.710;14.492;2022-09-09T16:18:25;24.44;53.44
65472;DHT22;52068;50.710;14.492;2022-09-09T16:20:54;24.44;53.43
65472;DHT22;52068;50.710;14.492;2022-09-09T16:23:19;24.43;53.46
65472;DHT22;52068;50.710;14.492;2022-09-09T16:25:52;24.43;53.43
65472;DHT22;52068;50.710;14.492;2022-09-09T16:28:18;24.40;53.49
65472;DHT22;52068;50.710;14.492;2022-09-09T16:30:43;24.43;53.50
65472;DHT22;52068;50.710;14.492;2022-09-09T16:33:08;24.39;53.50
65472;DHT22;52068;50.710;14.492;2022-09-09T16:35:36;24.39;53.53
65472;DHT22;52068;50.710;14.492;2022-09-09T16:38:01;24.34;53.57
65472;DHT22;52068;50.710;14.492;2022-09-09T16:40:27;24.39;53.55
65472;DHT22;52068;50.710;14.492;2022-09-09T16:42:52;24.34;53.59
65472;DHT22;52068;50.710;14.492;2022-09-09T16:45:17;24.34;53.65
65472;DHT22;52068;50.710;14.492;2022-09-09T16:47:42;24.32;53.62
65472;DHT22;52068;50.710;14.492;2022-09-09T16:50:09;24.32;53.62
65472;DHT22;52068;50.710;14.492;2022-09-09T16:52:34;24.32;53.65
65472;DHT22;52068;50.710;14.492;2022-09-09T16:55:00;24.32;53.67
65472;DHT22;52068;50.710;14.492;2022-09-09T16:57:25;24.30;53.74
65472;DHT22;52068;50.710;14.492;2022-09-09T16:59:50;24.30;53.72
65472;DHT22;52068;50.710;14.492;2022-09-09T17:02:19;24.27;53.72
65472;DHT22;52068;50.710;14.492;2022-09-09T17:04:44;24.26;53.80
65472;DHT22;52068;50.710;14.492;2022-09-09T17:07:09;24.27;53.80
65472;DHT22;52068;50.710;14.492;2022-09-09T17:09:35;24.26;53.90
65472;DHT22;52068;50.710;14.492;2022-09-09T17:12:00;24.24;53.88
65472;DHT22;52068;50.710;14.492;2022-09-09T17:14:25;24.24;53.92
65472;DHT22;52068;50.710;14.492;2022-09-09T17:16:51;24.23;53.93
65472;DHT22;52068;50.710;14.492;2022-09-09T17:19:16;24.23;53.99
65472;DHT22;52068;50.710;14.492;2022-09-09T17:21:42;24.22;54.01
65472;DHT22;52068;50.710;14.492;2022-09-09T17:24:07;24.20;54.04